createdAt,value
2023-05-14T00:00:14.157Z,0.00
2023-05-14T00:01:14.176Z,0.00
2023-05-14T00:02:14.153Z,0.00
2023-05-14T00:03:14.385Z,0.00
2023-05-14T00:04:14.148Z,0.00
2023-05-14T00:05:14.147Z,0.00
2023-05-14T00:06:14.145Z,0.00
2023-05-14T00:07:14.107Z,0.00
2023-05-14T00:08:14.097Z,0.00
2023-05-14T00:09:14.092Z,0.00
2023-05-14T00:10:14.116Z,0.00
2023-05-14T00:11:14.077Z,0.00
2023-05-14T00:12:14.070Z,0.00
2023-05-14T00:13:14.053Z,0.00
2023-05-14T00:14:14.056Z,0.00
2023-05-14T00:15:14.091Z,0.00
2023-05-14T00:16:14.092Z,0.00
2023-05-14T00:17:14.027Z,0.00
2023-05-14T00:18:14.021Z,0.00
2023-05-14T00:19:14.074Z,0.00
2023-05-14T00:20:14.049Z,0.00
2023-05-14T00:21:14.002Z,0.00
2023-05-14T00:22:13.990Z,0.00
2023-05-14T00:23:13.993Z,0.00
2023-05-14T00:24:13.980Z,0.00
2023-05-14T00:25:13.998Z,0.00
2023-05-14T00:26:13.969Z,0.00
2023-05-14T00:27:13.955Z,0.00
2023-05-14T00:28:13.958Z,0.00
2023-05-14T00:29:13.962Z,0.00
2023-05-14T00:30:13.966Z,0.00
2023-05-14T00:31:13.960Z,0.00
2023-05-14T00:32:13.913Z,0.00
2023-05-14T00:33:13.912Z,0.00
2023-05-14T00:34:13.925Z,0.00
2023-05-14T00:35:13.883Z,0.00
2023-05-14T00:36:13.881Z,0.00
2023-05-14T00:37:13.887Z,0.00
2023-05-14T00:38:13.871Z,0.00
2023-05-14T00:39:13.879Z,0.00
2023-05-14T00:40:13.875Z,0.00
2023-05-14T00:41:13.833Z,0.00
2023-05-14T00:42:13.836Z,0.00
2023-05-14T00:43:13.855Z,0.00
2023-05-14T00:44:13.840Z,0.00
2023-05-14T00:45:13.821Z,0.00
2023-05-14T00:46:13.830Z,0.00
2023-05-14T00:47:13.789Z,0.00
2023-05-14T00:48:13.811Z,0.00
2023-05-14T00:49:13.788Z,0.00
2023-05-14T00:50:13.775Z,0.00
2023-05-14T00:51:13.756Z,0.00
2023-05-14T00:52:13.747Z,0.00
2023-05-14T00:53:13.768Z,0.00
2023-05-14T00:54:13.737Z,0.00
2023-05-14T00:55:13.737Z,0.00
2023-05-14T00:56:13.713Z,0.00
2023-05-14T00:57:13.750Z,0.00
2023-05-14T00:58:13.732Z,0.00
2023-05-14T00:59:14.699Z,0.00
2023-05-14T01:00:13.695Z,0.00
2023-05-14T01:01:13.726Z,0.00
2023-05-14T01:02:13.698Z,0.00
2023-05-14T01:03:13.754Z,0.00
2023-05-14T01:04:13.663Z,0.00
2023-05-14T01:05:13.647Z,0.00
2023-05-14T01:06:13.642Z,0.00
2023-05-14T01:07:13.659Z,0.00
2023-05-14T01:08:13.628Z,0.00
2023-05-14T01:09:13.625Z,0.00
2023-05-14T01:10:13.595Z,0.00
2023-05-14T01:11:14.623Z,0.00
2023-05-14T01:12:13.622Z,0.00
2023-05-14T01:13:13.580Z,0.00
2023-05-14T01:14:13.572Z,0.00
2023-05-14T01:15:13.569Z,0.00
2023-05-14T01:16:13.627Z,0.00
2023-05-14T01:17:13.568Z,0.00
2023-05-14T01:18:13.638Z,0.00
2023-05-14T01:19:13.610Z,0.00
2023-05-14T01:20:13.529Z,0.00
2023-05-14T01:21:13.539Z,0.00
2023-05-14T01:22:13.503Z,0.00
2023-05-14T01:23:13.497Z,0.00
2023-05-14T01:24:14.494Z,0.00
2023-05-14T01:25:13.480Z,0.00
2023-05-14T01:26:13.499Z,0.00
2023-05-14T01:27:13.469Z,0.00
2023-05-14T01:28:13.454Z,0.00
2023-05-14T01:29:13.446Z,0.00
2023-05-14T01:30:13.465Z,0.00
2023-05-14T01:31:13.463Z,0.00
2023-05-14T01:32:13.468Z,0.00
2023-05-14T01:33:13.446Z,0.00
2023-05-14T01:34:13.411Z,0.00
2023-05-14T01:35:13.430Z,0.00
2023-05-14T01:36:13.403Z,0.00
2023-05-14T01:37:13.389Z,0.00
2023-05-14T01:38:13.384Z,0.00
2023-05-14T01:39:13.372Z,0.00
2023-05-14T01:40:13.397Z,0.00
2023-05-14T01:41:13.359Z,0.00
2023-05-14T01:42:13.347Z,0.00
2023-05-14T01:43:13.425Z,0.00
2023-05-14T01:44:13.355Z,0.00
2023-05-14T01:45:13.348Z,0.00
2023-05-14T01:46:13.376Z,0.00
2023-05-14T01:47:13.303Z,0.00
2023-05-14T01:48:13.294Z,0.00
2023-05-14T01:49:13.323Z,0.00
2023-05-14T01:50:13.282Z,0.00
2023-05-14T01:51:13.265Z,0.00
2023-05-14T01:52:13.267Z,0.00
2023-05-14T01:53:13.254Z,0.00
2023-05-14T01:54:13.270Z,0.00
2023-05-14T01:55:13.235Z,0.00
2023-05-14T01:56:13.239Z,0.00
2023-05-14T01:57:13.220Z,0.00
2023-05-14T01:58:13.216Z,0.00
2023-05-14T01:59:13.231Z,0.00
2023-05-14T02:00:13.198Z,0.00
2023-05-14T02:01:13.240Z,0.00
2023-05-14T02:02:13.184Z,0.00
2023-05-14T02:03:13.289Z,0.00
2023-05-14T02:04:13.218Z,0.00
2023-05-14T02:05:13.154Z,0.00
2023-05-14T02:06:13.152Z,0.00
2023-05-14T02:07:13.147Z,0.00
2023-05-14T02:08:13.158Z,0.00
2023-05-14T02:09:13.122Z,0.00
2023-05-14T02:10:13.117Z,0.00
2023-05-14T02:11:13.108Z,0.00
2023-05-14T02:12:13.110Z,0.00
2023-05-14T02:13:13.115Z,0.00
2023-05-14T02:14:13.085Z,0.00
2023-05-14T02:15:13.078Z,0.00
2023-05-14T02:16:13.178Z,0.00
2023-05-14T02:17:13.087Z,0.00
2023-05-14T02:18:13.204Z,0.00
2023-05-14T02:19:13.081Z,0.00
2023-05-14T02:20:13.047Z,0.00
2023-05-14T02:21:13.040Z,0.00
2023-05-14T02:22:13.050Z,0.00
2023-05-14T02:23:13.017Z,0.00
2023-05-14T02:24:13.015Z,0.00
2023-05-14T02:25:13.050Z,0.00
2023-05-14T02:26:13.037Z,0.00
2023-05-14T02:27:13.016Z,0.00
2023-05-14T02:28:12.982Z,0.00
2023-05-14T02:29:12.972Z,0.00
2023-05-14T02:30:12.959Z,0.00
2023-05-14T02:31:13.015Z,0.00
2023-05-14T02:32:13.013Z,0.00
2023-05-14T02:33:13.091Z,0.00
2023-05-14T02:34:12.931Z,0.00
2023-05-14T02:35:12.923Z,0.00
2023-05-14T02:36:12.936Z,0.00
2023-05-14T02:37:12.936Z,0.00
2023-05-14T02:38:12.895Z,0.00
2023-05-14T02:39:12.890Z,0.00
2023-05-14T02:40:12.897Z,0.00
2023-05-14T02:41:12.901Z,0.00
2023-05-14T02:42:12.868Z,0.00
2023-05-14T02:43:12.855Z,0.00
2023-05-14T02:44:12.867Z,0.00
2023-05-14T02:45:12.847Z,0.00
2023-05-14T02:46:12.904Z,0.00
2023-05-14T02:47:12.860Z,0.00
2023-05-14T02:48:12.940Z,0.00
2023-05-14T02:49:12.810Z,0.00
2023-05-14T02:50:12.810Z,0.00
2023-05-14T02:51:12.820Z,0.00
2023-05-14T02:52:12.787Z,0.00
2023-05-14T02:53:12.779Z,4.00
2023-05-14T02:54:12.772Z,4.00
2023-05-14T02:55:12.771Z,4.00
2023-05-14T02:56:12.775Z,0.00
2023-05-14T02:57:12.748Z,4.00
2023-05-14T02:58:12.749Z,4.00
2023-05-14T02:59:12.738Z,4.00
2023-05-14T03:00:12.744Z,4.00
2023-05-14T03:01:12.788Z,4.00
2023-05-14T03:02:12.759Z,4.00
2023-05-14T03:03:12.752Z,8.00
2023-05-14T03:04:12.704Z,4.00
2023-05-14T03:05:12.706Z,4.00
2023-05-14T03:06:12.720Z,12.00
2023-05-14T03:07:12.682Z,12.00
2023-05-14T03:08:12.664Z,8.00
2023-05-14T03:09:12.654Z,12.00
2023-05-14T03:10:12.725Z,16.00
2023-05-14T03:11:12.647Z,16.00
2023-05-14T03:12:45.147Z,20.00
2023-05-14T03:13:12.628Z,20.00
2023-05-14T03:14:12.642Z,20.00
2023-05-14T03:15:12.640Z,28.00
2023-05-14T03:16:12.636Z,28.00
2023-05-14T03:17:12.632Z,32.00
2023-05-14T03:18:12.589Z,36.00
2023-05-14T03:19:12.636Z,36.00
2023-05-14T03:20:12.590Z,44.00
2023-05-14T03:21:12.563Z,48.00
2023-05-14T03:22:12.555Z,52.00
2023-05-14T03:23:12.577Z,56.00
2023-05-14T03:24:12.566Z,60.00
2023-05-14T03:25:12.547Z,68.00
2023-05-14T03:26:12.545Z,76.00
2023-05-14T03:27:12.527Z,80.00
2023-05-14T03:28:12.550Z,84.00
2023-05-14T03:29:12.531Z,92.00
2023-05-14T03:30:12.506Z,100.00
2023-05-14T03:31:12.550Z,108.00
2023-05-14T03:32:12.488Z,116.00
2023-05-14T03:33:12.513Z,124.00
2023-05-14T03:34:12.466Z,136.00
2023-05-14T03:35:12.460Z,144.00
2023-05-14T03:36:12.453Z,156.00
2023-05-14T03:37:12.450Z,168.00
2023-05-14T03:38:12.464Z,180.00
2023-05-14T03:39:12.434Z,192.00
2023-05-14T03:40:12.424Z,204.00
2023-05-14T03:41:12.430Z,216.00
2023-05-14T03:42:12.424Z,228.00
2023-05-14T03:43:12.422Z,240.00
2023-05-14T03:44:12.396Z,260.00
2023-05-14T03:45:12.382Z,276.00
2023-05-14T03:46:12.372Z,296.00
2023-05-14T03:47:12.390Z,324.00
2023-05-14T03:48:12.498Z,344.00
2023-05-14T03:49:12.373Z,376.00
2023-05-14T03:50:12.359Z,400.00
2023-05-14T03:51:12.333Z,436.00
2023-05-14T03:52:12.359Z,476.00
2023-05-14T03:53:12.319Z,588.00
2023-05-14T03:54:12.316Z,1320.00
2023-05-14T03:55:12.298Z,2336.00
2023-05-14T03:56:12.295Z,2840.00
2023-05-14T03:57:12.306Z,3016.00
2023-05-14T03:58:12.270Z,2200.00
2023-05-14T03:59:12.269Z,1520.00
2023-05-14T04:00:12.258Z,992.00
2023-05-14T04:01:12.283Z,1136.00
2023-05-14T04:02:12.350Z,1124.00
2023-05-14T04:03:12.340Z,1232.00
2023-05-14T04:04:12.377Z,948.00
2023-05-14T04:05:12.216Z,992.00
2023-05-14T04:06:12.245Z,1064.00
2023-05-14T04:07:12.234Z,1144.00
2023-05-14T04:08:12.194Z,1248.00
2023-05-14T04:09:12.185Z,1500.00
2023-05-14T04:10:12.178Z,1684.00
2023-05-14T04:11:12.197Z,4332.00
2023-05-14T04:12:12.198Z,6520.00
2023-05-14T04:13:12.161Z,10880.00
2023-05-14T04:14:12.149Z,12736.00
2023-05-14T04:15:12.164Z,13792.00
2023-05-14T04:16:12.230Z,14112.00
2023-05-14T04:17:12.118Z,13760.00
2023-05-14T04:18:12.138Z,12224.00
2023-05-14T04:19:12.266Z,12736.00
2023-05-14T04:20:12.101Z,15296.00
2023-05-14T04:21:12.110Z,15296.00
2023-05-14T04:22:12.085Z,17216.00
2023-05-14T04:23:12.075Z,12736.00
2023-05-14T04:24:12.065Z,6432.00
2023-05-14T04:25:12.078Z,3208.00
2023-05-14T04:26:12.073Z,2708.00
2023-05-14T04:27:12.044Z,3396.00
2023-05-14T04:28:12.025Z,4656.00
2023-05-14T04:29:12.013Z,3116.00
2023-05-14T04:30:12.053Z,2932.00
2023-05-14T04:31:12.015Z,2784.00
2023-05-14T04:32:11.991Z,2636.00
2023-05-14T04:33:11.990Z,2544.00
2023-05-14T04:34:11.974Z,2472.00
2023-05-14T04:35:11.996Z,2436.00
2023-05-14T04:36:11.960Z,2416.00
2023-05-14T04:37:11.969Z,2416.00
2023-05-14T04:38:11.939Z,2412.00
2023-05-14T04:39:11.942Z,2420.00
2023-05-14T04:40:11.951Z,2440.00
2023-05-14T04:41:11.922Z,2472.00
2023-05-14T04:42:11.929Z,2520.00
2023-05-14T04:43:11.917Z,2576.00
2023-05-14T04:44:11.913Z,2640.00
2023-05-14T04:45:11.914Z,2708.00
2023-05-14T04:46:11.968Z,2788.00
2023-05-14T04:47:11.871Z,2832.00
2023-05-14T04:48:11.870Z,2856.00
2023-05-14T04:49:11.868Z,2876.00
2023-05-14T04:50:12.866Z,2904.00
2023-05-14T04:51:11.851Z,2924.00
2023-05-14T04:52:11.831Z,2940.00
2023-05-14T04:53:11.847Z,2976.00
2023-05-14T04:54:11.893Z,3016.00
2023-05-14T04:55:11.818Z,3056.00
2023-05-14T04:56:11.808Z,3080.00
2023-05-14T04:57:11.797Z,3092.00
2023-05-14T04:58:11.788Z,3084.00
2023-05-14T04:59:11.808Z,3088.00
2023-05-14T05:00:11.773Z,3108.00
2023-05-14T05:01:11.812Z,3148.00
2023-05-14T05:02:11.767Z,3212.00
2023-05-14T05:03:11.858Z,3268.00
2023-05-14T05:04:11.799Z,3332.00
2023-05-14T05:05:11.748Z,3408.00
2023-05-14T05:06:11.729Z,3500.00
2023-05-14T05:07:11.720Z,3580.00
2023-05-14T05:08:11.756Z,3656.00
2023-05-14T05:09:11.717Z,3724.00
2023-05-14T05:10:11.710Z,3800.00
2023-05-14T05:11:11.706Z,3868.00
2023-05-14T05:12:11.681Z,3932.00
2023-05-14T05:13:11.692Z,3992.00
2023-05-14T05:14:11.668Z,4052.00
2023-05-14T05:15:11.656Z,4124.00
2023-05-14T05:16:11.788Z,4200.00
2023-05-14T05:17:11.645Z,4292.00
2023-05-14T05:18:11.665Z,4380.00
2023-05-14T05:19:11.763Z,4476.00
2023-05-14T05:20:11.621Z,4576.00
2023-05-14T05:21:11.615Z,4676.00
2023-05-14T05:22:11.604Z,4792.00
2023-05-14T05:23:11.624Z,4924.00
2023-05-14T05:24:11.592Z,5076.00
2023-05-14T05:25:11.583Z,5240.00
2023-05-14T05:26:11.569Z,5420.00
2023-05-14T05:27:11.570Z,5616.00
2023-05-14T05:28:11.590Z,5832.00
2023-05-14T05:29:11.550Z,6076.00
2023-05-14T05:30:11.537Z,6328.00
2023-05-14T05:31:11.568Z,6604.00
2023-05-14T05:32:11.526Z,6912.00
2023-05-14T05:33:11.600Z,7268.00
2023-05-14T05:34:11.511Z,7692.00
2023-05-14T05:35:11.509Z,8180.00
2023-05-14T05:36:11.493Z,8720.00
2023-05-14T05:37:11.509Z,9280.00
2023-05-14T05:38:11.473Z,9804.00
2023-05-14T05:39:11.474Z,10268.00
2023-05-14T05:40:11.461Z,10604.00
2023-05-14T05:41:11.446Z,10840.00
2023-05-14T05:42:11.473Z,11000.00
2023-05-14T05:43:11.437Z,11116.00
2023-05-14T05:44:11.427Z,11136.00
2023-05-14T05:45:11.434Z,11116.00
2023-05-14T05:46:11.515Z,11100.00
2023-05-14T05:47:11.429Z,11172.00
2023-05-14T05:48:11.400Z,11368.00
2023-05-14T05:49:11.420Z,11612.00
2023-05-14T05:50:11.390Z,11940.00
2023-05-14T05:51:11.420Z,12316.00
2023-05-14T05:52:11.366Z,12788.00
2023-05-14T05:53:11.354Z,13264.00
2023-05-14T05:54:11.358Z,13840.00
2023-05-14T05:55:11.345Z,14852.00
2023-05-14T05:56:11.355Z,17024.00
2023-05-14T05:57:11.327Z,32928.00
2023-05-14T05:58:11.330Z,18432.00
2023-05-14T05:59:11.309Z,16800.00
2023-05-14T06:00:11.298Z,17056.00
2023-05-14T06:01:11.319Z,17088.00
2023-05-14T06:02:11.367Z,18080.00
2023-05-14T06:03:11.342Z,17344.00
2023-05-14T06:04:11.272Z,17920.00
2023-05-14T06:05:11.301Z,18976.00
2023-05-14T06:06:11.282Z,17952.00
2023-05-14T06:07:11.247Z,17696.00
2023-05-14T06:08:11.243Z,17120.00
2023-05-14T06:09:11.229Z,17312.00
2023-05-14T06:10:11.225Z,17632.00
2023-05-14T06:11:11.258Z,18144.00
2023-05-14T06:12:11.219Z,19136.00
2023-05-14T06:13:11.213Z,20480.00
2023-05-14T06:14:11.189Z,23328.00
2023-05-14T06:15:11.205Z,32704.00
2023-05-14T06:16:11.286Z,27424.00
2023-05-14T06:17:11.162Z,28256.00
2023-05-14T06:18:11.152Z,24320.00
2023-05-14T06:19:11.294Z,23872.00
2023-05-14T06:20:11.163Z,24480.00
2023-05-14T06:21:11.133Z,25664.00
2023-05-14T06:22:11.145Z,26176.00
2023-05-14T06:23:11.119Z,26656.00
2023-05-14T06:24:11.109Z,27488.00
2023-05-14T06:25:11.129Z,28832.00
2023-05-14T06:26:11.092Z,30976.00
2023-05-14T06:27:11.094Z,35936.00
2023-05-14T06:28:11.088Z,40352.00
2023-05-14T06:29:11.101Z,49408.00
2023-05-14T06:30:11.100Z,45088.00
2023-05-14T06:31:11.053Z,54240.00
2023-05-14T06:32:11.061Z,72512.00
2023-05-14T06:33:11.069Z,91552.00
2023-05-14T06:34:11.049Z,52512.00
2023-05-14T06:35:11.033Z,47168.00
2023-05-14T06:36:11.013Z,67232.00
2023-05-14T06:37:11.008Z,47584.00
2023-05-14T06:38:11.003Z,38784.00
2023-05-14T06:39:11.006Z,44544.00
2023-05-14T06:40:10.983Z,56064.00
2023-05-14T06:41:10.970Z,73536.00
2023-05-14T06:42:10.958Z,67520.00
2023-05-14T06:43:10.989Z,43584.00
2023-05-14T06:44:10.988Z,52864.00
2023-05-14T06:45:10.942Z,61952.00
2023-05-14T06:46:10.928Z,73088.00
2023-05-14T06:47:10.928Z,75072.00
2023-05-14T06:48:11.007Z,72384.00
2023-05-14T06:49:11.008Z,93728.00
2023-05-14T06:50:11.071Z,84928.00
2023-05-14T06:51:11.890Z,44352.00
2023-05-14T06:52:10.887Z,42432.00
2023-05-14T06:53:10.906Z,53248.00
2023-05-14T06:54:10.872Z,43968.00
2023-05-14T06:55:10.870Z,44352.00
2023-05-14T06:56:10.855Z,47200.00
2023-05-14T06:57:10.855Z,76384.00
2023-05-14T06:58:10.912Z,105440.00
2023-05-14T06:59:10.830Z,87392.00
2023-05-14T07:00:10.827Z,101984.00
2023-05-14T07:01:10.891Z,83168.00
2023-05-14T07:02:10.828Z,58560.00
2023-05-14T07:03:10.872Z,57152.00
2023-05-14T07:04:10.815Z,53792.00
2023-05-14T07:05:10.801Z,68096.00
2023-05-14T07:06:12.502Z,58048.00
2023-05-14T07:07:10.796Z,53344.00
2023-05-14T07:08:10.767Z,48608.00
2023-05-14T07:09:10.755Z,81856.00
2023-05-14T07:10:10.759Z,61600.00
2023-05-14T07:11:10.752Z,80576.00
2023-05-14T07:12:10.774Z,84576.00
2023-05-14T07:13:10.733Z,91104.00
2023-05-14T07:14:10.729Z,105504.00
2023-05-14T07:15:10.721Z,104800.00
2023-05-14T07:16:10.720Z,103360.00
2023-05-14T07:17:10.777Z,103232.00
2023-05-14T07:18:10.753Z,101376.00
2023-05-14T07:19:10.743Z,100224.00
2023-05-14T07:20:10.680Z,102496.00
2023-05-14T07:21:10.698Z,103872.00
2023-05-14T07:22:10.690Z,101024.00
2023-05-14T07:23:10.665Z,91616.00
2023-05-14T07:24:10.651Z,88064.00
2023-05-14T07:25:10.646Z,93888.00
2023-05-14T07:26:10.668Z,101696.00
2023-05-14T07:27:10.639Z,106752.00
2023-05-14T07:28:10.624Z,108064.00
2023-05-14T07:29:10.616Z,107136.00
2023-05-14T07:30:10.603Z,105760.00
2023-05-14T07:31:10.643Z,104320.00
2023-05-14T07:32:10.937Z,103200.00
2023-05-14T07:33:11.602Z,103392.00
2023-05-14T07:34:10.586Z,101280.00
2023-05-14T07:35:10.600Z,99232.00
2023-05-14T07:36:10.592Z,99808.00
2023-05-14T07:37:10.569Z,101056.00
2023-05-14T07:38:10.549Z,105440.00
2023-05-14T07:39:10.542Z,104096.00
2023-05-14T07:40:10.593Z,103808.00
2023-05-14T07:41:10.552Z,103840.00
2023-05-14T07:42:10.523Z,103296.00
2023-05-14T07:43:10.518Z,102080.00
2023-05-14T07:44:10.503Z,98432.00
2023-05-14T07:45:10.540Z,99872.00
2023-05-14T07:46:10.490Z,99232.00
2023-05-14T07:47:11.593Z,94816.00
2023-05-14T07:48:10.507Z,90848.00
2023-05-14T07:49:10.496Z,92448.00
2023-05-14T07:50:10.490Z,96224.00
2023-05-14T07:51:10.479Z,97888.00
2023-05-14T07:52:10.447Z,99040.00
2023-05-14T07:53:10.435Z,100128.00
2023-05-14T07:54:11.487Z,99584.00
2023-05-14T07:55:10.435Z,100448.00
2023-05-14T07:56:10.434Z,100704.00
2023-05-14T07:57:10.420Z,98464.00
2023-05-14T07:58:10.430Z,96864.00
2023-05-14T07:59:10.436Z,95328.00
2023-05-14T08:00:10.395Z,63008.00
2023-05-14T08:01:10.403Z,95136.00
2023-05-14T08:02:10.496Z,48896.00
2023-05-14T08:03:10.474Z,16220.00
2023-05-14T08:04:10.656Z,22336.00
2023-05-14T08:05:10.379Z,90496.00
2023-05-14T08:06:10.364Z,78592.00
2023-05-14T08:07:10.347Z,87168.00
2023-05-14T08:08:10.370Z,84032.00
2023-05-14T08:09:10.363Z,77376.00
2023-05-14T08:10:10.336Z,63744.00
2023-05-14T08:11:10.389Z,48288.00
2023-05-14T08:12:10.316Z,41120.00
2023-05-14T08:13:10.343Z,40000.00
2023-05-14T08:14:10.303Z,40544.00
2023-05-14T08:15:10.295Z,40576.00
2023-05-14T08:16:10.291Z,39968.00
2023-05-14T08:17:10.304Z,39264.00
2023-05-14T08:18:10.333Z,39040.00
2023-05-14T08:19:10.298Z,38144.00
2023-05-14T08:20:10.259Z,37920.00
2023-05-14T08:21:10.256Z,37536.00
2023-05-14T08:22:10.239Z,36672.00
2023-05-14T08:23:10.267Z,36160.00
2023-05-14T08:24:10.237Z,35584.00
2023-05-14T08:25:10.223Z,35232.00
2023-05-14T08:26:10.225Z,34656.00
2023-05-14T08:27:10.253Z,34432.00
2023-05-14T08:28:10.232Z,34144.00
2023-05-14T08:29:11.176Z,34048.00
2023-05-14T08:30:10.212Z,34368.00
2023-05-14T08:31:11.248Z,34432.00
2023-05-14T08:32:22.006Z,33536.00
2023-05-14T08:33:12.200Z,32896.00
2023-05-14T08:34:10.159Z,32256.00
2023-05-14T08:35:10.158Z,31840.00
2023-05-14T08:36:10.148Z,31456.00
2023-05-14T08:37:10.160Z,31040.00
2023-05-14T08:38:10.130Z,30688.00
2023-05-14T08:39:10.135Z,30816.00
2023-05-14T08:40:10.119Z,31392.00
2023-05-14T08:41:10.125Z,32160.00
2023-05-14T08:42:10.135Z,32192.00
2023-05-14T08:43:10.090Z,31744.00
2023-05-14T08:44:10.091Z,31392.00
2023-05-14T08:45:10.080Z,31072.00
2023-05-14T08:46:10.098Z,30912.00
2023-05-14T08:47:10.065Z,30464.00
2023-05-14T08:48:10.125Z,30944.00
2023-05-14T08:49:10.115Z,29344.00
2023-05-14T08:50:10.037Z,20032.00
2023-05-14T08:51:10.067Z,29632.00
2023-05-14T08:52:10.024Z,28256.00
2023-05-14T08:53:10.012Z,19936.00
2023-05-14T08:54:10.002Z,20864.00
2023-05-14T08:55:10.029Z,25504.00
2023-05-14T08:56:10.032Z,25760.00
2023-05-14T08:57:10.067Z,25952.00
2023-05-14T08:58:09.976Z,25920.00
2023-05-14T08:59:09.973Z,26080.00
2023-05-14T09:00:09.996Z,26496.00
2023-05-14T09:01:09.958Z,26560.00
2023-05-14T09:02:09.987Z,26624.00
2023-05-14T09:03:09.967Z,26912.00
2023-05-14T09:04:09.988Z,27328.00
2023-05-14T09:05:09.954Z,27584.00
2023-05-14T09:06:09.925Z,28480.00
2023-05-14T09:07:09.932Z,29568.00
2023-05-14T09:08:09.901Z,30592.00
2023-05-14T09:09:09.921Z,32576.00
2023-05-14T09:10:09.927Z,16332.00
2023-05-14T09:11:09.886Z,32960.00
2023-05-14T09:12:09.880Z,34432.00
2023-05-14T09:13:09.866Z,35136.00
2023-05-14T09:14:09.913Z,35104.00
2023-05-14T09:15:09.874Z,34784.00
2023-05-14T09:16:09.904Z,33312.00
2023-05-14T09:17:09.850Z,31936.00
2023-05-14T09:18:09.856Z,29664.00
2023-05-14T09:19:09.876Z,28000.00
2023-05-14T09:20:09.830Z,24160.00
2023-05-14T09:21:09.810Z,20160.00
2023-05-14T09:22:09.854Z,18720.00
2023-05-14T09:23:09.795Z,18400.00
2023-05-14T09:24:09.810Z,18496.00
2023-05-14T09:25:09.796Z,14948.00
2023-05-14T09:26:09.769Z,15920.00
2023-05-14T09:27:09.763Z,16864.00
2023-05-14T09:28:09.752Z,12792.00
2023-05-14T09:29:09.777Z,15876.00
2023-05-14T09:30:09.739Z,15832.00
2023-05-14T09:31:09.773Z,15620.00
2023-05-14T09:32:09.739Z,12548.00
2023-05-14T09:33:09.807Z,15500.00
2023-05-14T09:34:09.729Z,14960.00
2023-05-14T09:35:09.706Z,14792.00
2023-05-14T09:36:09.698Z,14416.00
2023-05-14T09:37:09.691Z,13492.00
2023-05-14T09:38:09.678Z,13024.00
2023-05-14T09:39:09.697Z,9908.00
2023-05-14T09:40:09.653Z,10128.00
2023-05-14T09:41:10.651Z,10600.00
2023-05-14T09:42:09.646Z,11072.00
2023-05-14T09:43:09.632Z,11800.00
2023-05-14T09:44:10.663Z,12168.00
2023-05-14T09:45:09.638Z,13928.00
2023-05-14T09:46:09.619Z,14244.00
2023-05-14T09:47:09.626Z,14556.00
2023-05-14T09:48:10.803Z,14508.00
2023-05-14T09:49:09.616Z,14160.00
2023-05-14T09:50:09.609Z,13932.00
2023-05-14T09:51:09.578Z,14052.00
2023-05-14T09:52:09.572Z,14124.00
2023-05-14T09:53:09.570Z,14344.00
2023-05-14T09:54:09.577Z,14696.00
2023-05-14T09:55:09.555Z,14904.00
2023-05-14T09:56:09.544Z,14940.00
2023-05-14T09:57:09.537Z,15064.00
2023-05-14T09:58:09.553Z,15120.00
2023-05-14T09:59:09.550Z,13264.00
2023-05-14T10:00:09.506Z,12476.00
2023-05-14T10:01:09.545Z,14944.00
2023-05-14T10:02:09.509Z,13344.00
2023-05-14T10:03:09.579Z,13052.00
2023-05-14T10:04:09.489Z,13052.00
2023-05-14T10:05:09.615Z,15148.00
2023-05-14T10:06:09.465Z,15412.00
2023-05-14T10:07:09.456Z,15108.00
2023-05-14T10:08:09.470Z,14008.00
2023-05-14T10:09:09.443Z,12592.00
2023-05-14T10:10:09.433Z,14108.00
2023-05-14T10:11:09.422Z,14656.00
2023-05-14T10:12:09.430Z,14232.00
2023-05-14T10:13:09.427Z,12220.00
2023-05-14T10:14:09.383Z,11628.00
2023-05-14T10:15:10.412Z,11292.00
2023-05-14T10:16:09.388Z,11232.00
2023-05-14T10:17:09.446Z,10964.00
2023-05-14T10:18:09.496Z,10956.00
2023-05-14T10:19:09.486Z,10836.00
2023-05-14T10:20:09.360Z,11628.00
2023-05-14T10:21:09.344Z,10692.00
2023-05-14T10:22:09.357Z,10660.00
2023-05-14T10:23:09.340Z,10876.00
2023-05-14T10:24:09.365Z,10940.00
2023-05-14T10:25:09.315Z,10988.00
2023-05-14T10:26:09.299Z,13248.00
2023-05-14T10:27:09.316Z,13476.00
2023-05-14T10:28:09.284Z,13292.00
2023-05-14T10:29:09.277Z,10872.00
2023-05-14T10:30:09.269Z,11176.00
2023-05-14T10:31:09.287Z,11608.00
2023-05-14T10:32:09.279Z,11976.00
2023-05-14T10:33:09.311Z,12220.00
2023-05-14T10:34:09.243Z,12284.00
2023-05-14T10:35:09.228Z,12364.00
2023-05-14T10:36:09.253Z,12664.00
2023-05-14T10:37:09.264Z,12424.00
2023-05-14T10:38:09.224Z,12316.00
2023-05-14T10:39:09.200Z,12412.00
2023-05-14T10:40:09.196Z,12152.00
2023-05-14T10:41:09.211Z,11772.00
2023-05-14T10:42:09.179Z,11748.00
2023-05-14T10:43:09.168Z,11704.00
2023-05-14T10:44:09.159Z,12536.00
2023-05-14T10:45:09.156Z,13172.00
2023-05-14T10:46:09.189Z,13696.00
2023-05-14T10:47:09.137Z,12664.00
2023-05-14T10:48:09.159Z,11716.00
2023-05-14T10:49:10.123Z,11696.00
2023-05-14T10:50:09.138Z,11596.00
2023-05-14T10:51:09.223Z,11512.00
2023-05-14T10:52:09.094Z,11268.00
2023-05-14T10:53:09.091Z,11564.00
2023-05-14T10:54:09.080Z,12888.00
2023-05-14T10:55:09.102Z,10640.00
2023-05-14T10:56:09.098Z,10252.00
2023-05-14T10:57:09.066Z,11644.00
2023-05-14T10:58:09.047Z,10864.00
2023-05-14T10:59:09.044Z,9584.00
2023-05-14T11:00:09.117Z,9756.00
2023-05-14T11:01:09.025Z,10152.00
2023-05-14T11:02:09.074Z,10608.00
2023-05-14T11:03:09.045Z,10960.00
2023-05-14T11:04:09.076Z,11184.00
2023-05-14T11:05:09.026Z,11216.00
2023-05-14T11:06:08.995Z,11220.00
2023-05-14T11:07:08.981Z,11156.00
2023-05-14T11:08:08.975Z,11228.00
2023-05-14T11:09:08.993Z,11316.00
2023-05-14T11:10:08.982Z,11936.00
2023-05-14T11:11:09.950Z,12136.00
2023-05-14T11:12:08.942Z,12128.00
2023-05-14T11:13:08.937Z,13760.00
2023-05-14T11:14:10.230Z,13812.00
2023-05-14T11:15:08.918Z,13796.00
2023-05-14T11:16:21.966Z,13664.00
2023-05-14T11:17:10.934Z,11120.00
2023-05-14T11:18:09.002Z,11068.00
2023-05-14T11:19:08.961Z,11024.00
2023-05-14T11:20:08.887Z,10840.00
2023-05-14T11:21:08.936Z,10800.00
2023-05-14T11:22:08.850Z,10684.00
2023-05-14T11:23:09.879Z,10408.00
2023-05-14T11:24:08.871Z,10316.00
2023-05-14T11:25:08.840Z,11176.00
2023-05-14T11:26:08.883Z,10896.00
2023-05-14T11:27:08.821Z,12756.00
2023-05-14T11:28:08.866Z,10736.00
2023-05-14T11:29:08.814Z,12400.00
2023-05-14T11:30:08.815Z,10132.00
2023-05-14T11:31:08.794Z,10116.00
2023-05-14T11:32:08.942Z,10240.00
2023-05-14T11:33:08.826Z,12160.00
2023-05-14T11:34:08.772Z,11160.00
2023-05-14T11:35:08.774Z,10332.00
2023-05-14T11:36:08.755Z,10448.00
2023-05-14T11:37:08.772Z,12912.00
2023-05-14T11:38:09.331Z,12696.00
2023-05-14T11:39:09.732Z,12248.00
2023-05-14T11:40:08.731Z,11956.00
2023-05-14T11:41:08.715Z,11760.00
2023-05-14T11:42:08.784Z,11488.00
2023-05-14T11:43:08.701Z,9492.00
2023-05-14T11:44:09.211Z,9300.00
2023-05-14T11:45:09.686Z,9420.00
2023-05-14T11:46:08.744Z,9468.00
2023-05-14T11:47:08.694Z,9764.00
2023-05-14T11:48:08.718Z,12636.00
2023-05-14T11:49:08.653Z,12928.00
2023-05-14T11:50:09.631Z,11248.00
2023-05-14T11:51:09.641Z,12736.00
2023-05-14T11:52:08.662Z,12736.00
2023-05-14T11:53:08.624Z,10436.00
2023-05-14T11:54:08.619Z,10616.00
2023-05-14T11:55:08.611Z,11104.00
2023-05-14T11:56:09.907Z,11552.00
2023-05-14T11:57:09.617Z,12188.00
2023-05-14T11:58:08.581Z,14232.00
2023-05-14T11:59:08.571Z,13704.00
2023-05-14T12:00:08.565Z,12436.00
2023-05-14T12:01:08.583Z,11932.00
2023-05-14T12:02:08.565Z,13008.00
2023-05-14T12:03:08.607Z,12364.00
2023-05-14T12:04:08.644Z,10240.00
2023-05-14T12:05:08.525Z,9844.00
2023-05-14T12:06:08.554Z,9364.00
2023-05-14T12:07:08.511Z,9116.00
2023-05-14T12:08:08.503Z,8900.00
2023-05-14T12:09:08.503Z,8836.00
2023-05-14T12:10:08.528Z,8968.00
2023-05-14T12:11:08.508Z,9312.00
2023-05-14T12:12:08.480Z,9700.00